sensor_id;sensor_type;location;lat;lon;timestamp;temperature;humidity
62476;DHT22;50739;45.670;11.936;2023-07-20T00:04:24;24.14;88.18
62476;DHT22;50739;45.670;11.936;2023-07-20T00:09:28;23.98;88.42
62476;DHT22;50739;45.670;11.936;2023-07-20T00:14:30;23.84;89.69
62476;DHT22;50739;45.670;11.936;2023-07-20T00:19:33;23.54;90.38
62476;DHT22;50739;45.670;11.936;2023-07-20T00:24:37;23.70;89.65
62476;DHT22;50739;45.670;11.936;2023-07-20T00:29:39;23.45;90.20
62476;DHT22;50739;45.670;11.936;2023-07-20T00:34:42;23.61;90.13
62476;DHT22;50739;45.670;11.936;2023-07-20T00:39:45;23.45;90.86
62476;DHT22;50739;45.670;11.936;2023-07-20T00:44:47;23.34;91.36
62476;DHT22;50739;45.670;11.936;2023-07-20T00:49:51;23.24;91.82
62476;DHT22;50739;45.670;11.936;2023-07-20T00:54:55;23.24;92.13
62476;DHT22;50739;45.670;11.936;2023-07-20T00:59:58;23.34;91.30
62476;DHT22;50739;45.670;11.936;2023-07-20T01:05:01;23.24;91.86
62476;DHT22;50739;45.670;11.936;2023-07-20T01:10:10;23.47;90.59
62476;DHT22;50739;45.670;11.936;2023-07-20T01:15:14;23.29;90.75
62476;DHT22;50739;45.670;11.936;2023-07-20T01:20:18;23.51;91.09
62476;DHT22;50739;45.670;11.936;2023-07-20T01:25:31;23.64;91.88
62476;DHT22;50739;45.670;11.936;2023-07-20T01:30:59;23.46;91.22
62476;DHT22;50739;45.670;11.936;2023-07-20T01:36:06;23.53;91.52
62476;DHT22;50739;45.670;11.936;2023-07-20T01:41:09;23.70;90.34
62476;DHT22;50739;45.670;11.936;2023-07-20T01:46:12;23.45;90.05
62476;DHT22;50739;45.670;11.936;2023-07-20T01:51:16;23.24;91.11
62476;DHT22;50739;45.670;11.936;2023-07-20T01:56:18;23.16;91.30
62476;DHT22;50739;45.670;11.936;2023-07-20T02:01:21;23.24;90.14
62476;DHT22;50739;45.670;11.936;2023-07-20T02:06:24;23.19;90.45
62476;DHT22;50739;45.670;11.936;2023-07-20T02:11:27;22.99;91.49
62476;DHT22;50739;45.670;11.936;2023-07-20T02:16:29;23.05;90.78
62476;DHT22;50739;45.670;11.936;2023-07-20T02:21:33;23.26;89.55
62476;DHT22;50739;45.670;11.936;2023-07-20T02:26:35;23.27;88.42
62476;DHT22;50739;45.670;11.936;2023-07-20T02:31:38;23.30;88.09
62476;DHT22;50739;45.670;11.936;2023-07-20T02:36:42;23.18;88.14
62476;DHT22;50739;45.670;11.936;2023-07-20T02:41:44;23.51;87.48
62476;DHT22;50739;45.670;11.936;2023-07-20T02:46:46;23.18;87.49
62476;DHT22;50739;45.670;11.936;2023-07-20T02:51:51;23.20;87.25
62476;DHT22;50739;45.670;11.936;2023-07-20T02:56:54;23.16;86.74
62476;DHT22;50739;45.670;11.936;2023-07-20T03:01:56;23.43;85.81
62476;DHT22;50739;45.670;11.936;2023-07-20T03:07:01;23.33;86.82
62476;DHT22;50739;45.670;11.936;2023-07-20T03:12:05;23.13;88.11
62476;DHT22;50739;45.670;11.936;2023-07-20T03:17:07;23.46;86.99
62476;DHT22;50739;45.670;11.936;2023-07-20T03:22:11;23.23;87.76
62476;DHT22;50739;45.670;11.936;2023-07-20T03:27:14;23.11;88.47
62476;DHT22;50739;45.670;11.936;2023-07-20T03:32:16;23.12;88.80
62476;DHT22;50739;45.670;11.936;2023-07-20T03:37:20;23.27;88.56
62476;DHT22;50739;45.670;11.936;2023-07-20T03:42:23;22.99;89.19
62476;DHT22;50739;45.670;11.936;2023-07-20T03:47:25;23.56;87.39
62476;DHT22;50739;45.670;11.936;2023-07-20T03:52:29;23.16;88.84
62476;DHT22;50739;45.670;11.936;2023-07-20T03:57:31;23.39;87.78
62476;DHT22;50739;45.670;11.936;2023-07-20T04:02:34;23.23;88.54
62476;DHT22;50739;45.670;11.936;2023-07-20T04:07:37;23.20;88.91
62476;DHT22;50739;45.670;11.936;2023-07-20T04:12:40;23.16;89.54
62476;DHT22;50739;45.670;11.936;2023-07-20T04:17:42;23.15;88.15
62476;DHT22;50739;45.670;11.936;2023-07-20T04:22:46;23.40;88.18
62476;DHT22;50739;45.670;11.936;2023-07-20T04:27:48;23.47;87.22
62476;DHT22;50739;45.670;11.936;2023-07-20T04:32:50;23.53;86.32
62476;DHT22;50739;45.670;11.936;2023-07-20T04:37:54;23.45;85.72
62476;DHT22;50739;45.670;11.936;2023-07-20T04:42:56;23.61;86.33
62476;DHT22;50739;45.670;11.936;2023-07-20T04:47:58;23.45;86.60
62476;DHT22;50739;45.670;11.936;2023-07-20T04:53:02;23.56;87.32
62476;DHT22;50739;45.670;11.936;2023-07-20T04:58:05;23.26;88.60
62476;DHT22;50739;45.670;11.936;2023-07-20T05:03:07;23.32;87.98
62476;DHT22;50739;45.670;11.936;2023-07-20T05:08:11;23.22;88.01
62476;DHT22;50739;45.670;11.936;2023-07-20T05:13:14;23.33;88.12
62476;DHT22;50739;45.670;11.936;2023-07-20T05:18:16;23.59;87.59
62476;DHT22;50739;45.670;11.936;2023-07-20T05:23:22;23.84;86.42
62476;DHT22;50739;45.670;11.936;2023-07-20T05:28:24;23.87;87.10
62476;DHT22;50739;45.670;11.936;2023-07-20T05:33:27;23.97;86.78
62476;DHT22;50739;45.670;11.936;2023-07-20T05:38:30;24.06;85.95
62476;DHT22;50739;45.670;11.936;2023-07-20T05:43:33;24.23;85.94
62476;DHT22;50739;45.670;11.936;2023-07-20T05:48:35;24.39;85.03
62476;DHT22;50739;45.670;11.936;2023-07-20T05:53:39;24.52;84.82
62476;DHT22;50739;45.670;11.936;2023-07-20T05:58:41;24.73;84.89
62476;DHT22;50739;45.670;11.936;2023-07-20T06:03:43;24.80;84.31
62476;DHT22;50739;45.670;11.936;2023-07-20T06:08:47;24.92;82.06
62476;DHT22;50739;45.670;11.936;2023-07-20T06:13:49;25.08;81.29
62476;DHT22;50739;45.670;11.936;2023-07-20T06:18:51;25.28;78.69
62476;DHT22;50739;45.670;11.936;2023-07-20T06:23:55;25.36;78.66
62476;DHT22;50739;45.670;11.936;2023-07-20T06:28:58;25.53;77.42
62476;DHT22;50739;45.670;11.936;2023-07-20T06:34:00;25.73;77.92
62476;DHT22;50739;45.670;11.936;2023-07-20T06:39:04;25.79;77.04
62476;DHT22;50739;45.670;11.936;2023-07-20T06:44:06;26.01;74.30
62476;DHT22;50739;45.670;11.936;2023-07-20T06:49:09;26.17;74.38
62476;DHT22;50739;45.670;11.936;2023-07-20T06:54:12;26.41;72.75
62476;DHT22;50739;45.670;11.936;2023-07-20T06:59:15;26.53;71.84
62476;DHT22;50739;45.670;11.936;2023-07-20T07:04:17;26.59;71.00
62476;DHT22;50739;45.670;11.936;2023-07-20T07:09:21;26.75;69.16
62476;DHT22;50739;45.670;11.936;2023-07-20T07:14:23;26.90;69.54
62476;DHT22;50739;45.670;11.936;2023-07-20T07:19:25;26.97;67.81
62476;DHT22;50739;45.670;11.936;2023-07-20T07:24:29;27.13;69.05
62476;DHT22;50739;45.670;11.936;2023-07-20T07:29:34;27.21;69.41
62476;DHT22;50739;45.670;11.936;2023-07-20T07:34:37;27.30;69.46
62476;DHT22;50739;45.670;11.936;2023-07-20T07:39:40;27.48;69.53
62476;DHT22;50739;45.670;11.936;2023-07-20T07:44:43;27.58;68.81
62476;DHT22;50739;45.670;11.936;2023-07-20T07:49:45;27.58;69.22
62476;DHT22;50739;45.670;11.936;2023-07-20T07:54:49;27.75;68.55
62476;DHT22;50739;45.670;11.936;2023-07-20T07:59:51;27.92;68.36
62476;DHT22;50739;45.670;11.936;2023-07-20T08:04:53;27.93;67.95
62476;DHT22;50739;45.670;11.936;2023-07-20T08:09:57;28.13;68.25
62476;DHT22;50739;45.670;11.936;2023-07-20T08:14:59;28.23;67.89
62476;DHT22;50739;45.670;11.936;2023-07-20T08:20:02;28.14;65.29
62476;DHT22;50739;45.670;11.936;2023-07-20T08:25:07;28.30;65.78
62476;DHT22;50739;45.670;11.936;2023-07-20T08:30:10;28.55;64.14
62476;DHT22;50739;45.670;11.936;2023-07-20T08:35:12;28.55;64.55
62476;DHT22;50739;45.670;11.936;2023-07-20T08:40:17;28.75;62.26
62476;DHT22;50739;45.670;11.936;2023-07-20T08:45:20;28.85;62.25
62476;DHT22;50739;45.670;11.936;2023-07-20T08:50:26;28.85;62.29
62476;DHT22;50739;45.670;11.936;2023-07-20T08:55:31;28.88;63.34
62476;DHT22;50739;45.670;11.936;2023-07-20T09:00:34;29.03;64.70
62476;DHT22;50739;45.670;11.936;2023-07-20T09:05:37;29.30;62.85
62476;DHT22;50739;45.670;11.936;2023-07-20T09:10:42;29.24;63.45
62476;DHT22;50739;45.670;11.936;2023-07-20T09:15:48;29.34;63.41
62476;DHT22;50739;45.670;11.936;2023-07-20T09:20:58;29.40;63.80
62476;DHT22;50739;45.670;11.936;2023-07-20T09:26:10;29.54;62.71
62476;DHT22;50739;45.670;11.936;2023-07-20T09:31:16;29.67;63.65
62476;DHT22;50739;45.670;11.936;2023-07-20T09:36:19;29.53;63.05
62476;DHT22;50739;45.670;11.936;2023-07-20T09:41:23;29.65;62.67
62476;DHT22;50739;45.670;11.936;2023-07-20T09:46:41;29.67;61.80
62476;DHT22;50739;45.670;11.936;2023-07-20T09:51:44;29.84;63.47
62476;DHT22;50739;45.670;11.936;2023-07-20T09:56:48;29.95;62.26
62476;DHT22;50739;45.670;11.936;2023-07-20T10:01:53;29.78;61.49
62476;DHT22;50739;45.670;11.936;2023-07-20T10:06:59;29.93;59.81
62476;DHT22;50739;45.670;11.936;2023-07-20T10:12:07;30.09;56.12
62476;DHT22;50739;45.670;11.936;2023-07-20T10:17:12;30.27;56.78
62476;DHT22;50739;45.670;11.936;2023-07-20T10:22:19;30.53;57.12
62476;DHT22;50739;45.670;11.936;2023-07-20T10:27:23;30.61;56.87
62476;DHT22;50739;45.670;11.936;2023-07-20T10:32:26;30.61;57.19
62476;DHT22;50739;45.670;11.936;2023-07-20T10:37:52;30.61;58.25
62476;DHT22;50739;45.670;11.936;2023-07-20T10:43:00;30.54;58.03
62476;DHT22;50739;45.670;11.936;2023-07-20T10:48:04;30.75;55.05
62476;DHT22;50739;45.670;11.936;2023-07-20T10:53:17;31.03;50.03
62476;DHT22;50739;45.670;11.936;2023-07-20T10:58:21;31.12;50.53
62476;DHT22;50739;45.670;11.936;2023-07-20T11:03:30;31.14;51.76
62476;DHT22;50739;45.670;11.936;2023-07-20T11:08:39;31.32;51.49
62476;DHT22;50739;45.670;11.936;2023-07-20T11:13:55;31.35;52.51
62476;DHT22;50739;45.670;11.936;2023-07-20T11:18:58;31.38;51.57
62476;DHT22;50739;45.670;11.936;2023-07-20T11:24:03;31.50;50.65
62476;DHT22;50739;45.670;11.936;2023-07-20T11:29:07;31.32;51.43
62476;DHT22;50739;45.670;11.936;2023-07-20T11:34:11;31.33;52.46
62476;DHT22;50739;45.670;11.936;2023-07-20T11:39:14;31.50;55.70
62476;DHT22;50739;45.670;11.936;2023-07-20T11:44:23;31.57;51.07
62476;DHT22;50739;45.670;11.936;2023-07-20T11:49:28;31.72;49.67
62476;DHT22;50739;45.670;11.936;2023-07-20T11:54:31;31.83;53.45
62476;DHT22;50739;45.670;11.936;2023-07-20T11:59:35;31.97;52.10
62476;DHT22;50739;45.670;11.936;2023-07-20T12:04:38;32.08;51.38
62476;DHT22;50739;45.670;11.936;2023-07-20T12:09:41;32.02;53.09
62476;DHT22;50739;45.670;11.936;2023-07-20T12:14:45;32.29;52.93
62476;DHT22;50739;45.670;11.936;2023-07-20T12:19:47;32.33;51.01
62476;DHT22;50739;45.670;11.936;2023-07-20T12:24:52;32.38;52.82
62476;DHT22;50739;45.670;11.936;2023-07-20T12:29:55;32.46;51.11
62476;DHT22;50739;45.670;11.936;2023-07-20T12:34:58;32.60;51.51
62476;DHT22;50739;45.670;11.936;2023-07-20T12:40:01;32.76;52.00
62476;DHT22;50739;45.670;11.936;2023-07-20T12:45:07;32.96;52.03
62476;DHT22;50739;45.670;11.936;2023-07-20T12:50:09;32.83;50.28
62476;DHT22;50739;45.670;11.936;2023-07-20T12:55:12;32.87;49.35
62476;DHT22;50739;45.670;11.936;2023-07-20T13:00:16;33.14;51.10
62476;DHT22;50739;45.670;11.936;2023-07-20T13:05:19;33.45;48.21
62476;DHT22;50739;45.670;11.936;2023-07-20T13:10:21;33.32;49.91
62476;DHT22;50739;45.670;11.936;2023-07-20T13:15:29;33.45;49.88
62476;DHT22;50739;45.670;11.936;2023-07-20T13:20:32;33.78;51.05
62476;DHT22;50739;45.670;11.936;2023-07-20T13:25:35;33.90;49.63
62476;DHT22;50739;45.670;11.936;2023-07-20T13:30:38;34.14;50.45
62476;DHT22;50739;45.670;11.936;2023-07-20T13:35:41;34.37;49.28
62476;DHT22;50739;45.670;11.936;2023-07-20T13:40:44;34.27;49.29
62476;DHT22;50739;45.670;11.936;2023-07-20T13:45:47;34.88;48.64
62476;DHT22;50739;45.670;11.936;2023-07-20T13:50:50;35.12;48.71
62476;DHT22;50739;45.670;11.936;2023-07-20T13:55:52;35.03;48.37
62476;DHT22;50739;45.670;11.936;2023-07-20T14:00:56;35.40;49.29
62476;DHT22;50739;45.670;11.936;2023-07-20T14:05:58;35.57;48.60
62476;DHT22;50739;45.670;11.936;2023-07-20T14:11:00;35.42;48.24
62476;DHT22;50739;45.670;11.936;2023-07-20T14:16:05;35.36;46.32
62476;DHT22;50739;45.670;11.936;2023-07-20T14:21:08;35.17;49.44
62476;DHT22;50739;45.670;11.936;2023-07-20T14:26:10;35.64;48.09
62476;DHT22;50739;45.670;11.936;2023-07-20T14:31:14;35.97;47.55
62476;DHT22;50739;45.670;11.936;2023-07-20T14:36:16;36.18;46.11
62476;DHT22;50739;45.670;11.936;2023-07-20T14:41:18;36.26;44.72
62476;DHT22;50739;45.670;11.936;2023-07-20T14:46:23;36.46;46.43
62476;DHT22;50739;45.670;11.936;2023-07-20T14:51:25;36.87;43.67
62476;DHT22;50739;45.670;11.936;2023-07-20T14:56:32;37.18;43.25
62476;DHT22;50739;45.670;11.936;2023-07-20T15:01:36;37.48;41.93
62476;DHT22;50739;45.670;11.936;2023-07-20T15:06:38;37.00;42.18
62476;DHT22;50739;45.670;11.936;2023-07-20T15:11:40;36.98;43.21
62476;DHT22;50739;45.670;11.936;2023-07-20T15:16:45;36.86;42.80
62476;DHT22;50739;45.670;11.936;2023-07-20T15:21:48;37.10;43.68
62476;DHT22;50739;45.670;11.936;2023-07-20T15:26:50;37.17;43.26
62476;DHT22;50739;45.670;11.936;2023-07-20T15:31:54;37.18;43.55
62476;DHT22;50739;45.670;11.936;2023-07-20T15:36:56;37.04;45.19
62476;DHT22;50739;45.670;11.936;2023-07-20T15:41:59;36.91;44.93
62476;DHT22;50739;45.670;11.936;2023-07-20T15:47:03;36.53;46.49
62476;DHT22;50739;45.670;11.936;2023-07-20T15:52:07;36.63;44.02
62476;DHT22;50739;45.670;11.936;2023-07-20T15:57:09;36.40;44.54
62476;DHT22;50739;45.670;11.936;2023-07-20T16:02:13;36.39;44.80
62476;DHT22;50739;45.670;11.936;2023-07-20T16:07:15;36.43;45.35
62476;DHT22;50739;45.670;11.936;2023-07-20T16:12:18;36.37;45.05
62476;DHT22;50739;45.670;11.936;2023-07-20T16:17:27;36.35;46.18
62476;DHT22;50739;45.670;11.936;2023-07-20T16:22:30;36.18;45.69
62476;DHT22;50739;45.670;11.936;2023-07-20T16:27:32;35.99;45.78
62476;DHT22;50739;45.670;11.936;2023-07-20T16:32:36;36.01;46.57
62476;DHT22;50739;45.670;11.936;2023-07-20T16:37:39;35.67;47.70
62476;DHT22;50739;45.670;11.936;2023-07-20T16:42:41;35.67;47.10
62476;DHT22;50739;45.670;11.936;2023-07-20T16:47:45;35.71;47.94
62476;DHT22;50739;45.670;11.936;2023-07-20T16:52:48;35.47;46.65
62476;DHT22;50739;45.670;11.936;2023-07-20T16:57:50;35.57;47.15
62476;DHT22;50739;45.670;11.936;2023-07-20T17:02:54;35.54;47.22
62476;DHT22;50739;45.670;11.936;2023-07-20T17:07:56;35.39;47.54
62476;DHT22;50739;45.670;11.936;2023-07-20T17:12:59;35.40;47.61
62476;DHT22;50739;45.670;11.936;2023-07-20T17:18:04;35.15;48.61
62476;DHT22;50739;45.670;11.936;2023-07-20T17:23:06;35.02;47.73
62476;DHT22;50739;45.670;11.936;2023-07-20T17:28:09;35.15;47.39
62476;DHT22;50739;45.670;11.936;2023-07-20T17:33:12;34.69;48.58
62476;DHT22;50739;45.670;11.936;2023-07-20T17:38:16;34.69;48.13
62476;DHT22;50739;45.670;11.936;2023-07-20T17:43:18;34.40;49.14
62476;DHT22;50739;45.670;11.936;2023-07-20T17:48:22;34.00;49.78
62476;DHT22;50739;45.670;11.936;2023-07-20T17:53:24;33.65;50.51
62476;DHT22;50739;45.670;11.936;2023-07-20T17:58:27;33.47;51.11
62476;DHT22;50739;45.670;11.936;2023-07-20T18:03:31;33.17;51.20
62476;DHT22;50739;45.670;11.936;2023-07-20T18:08:33;33.02;51.23
62476;DHT22;50739;45.670;11.936;2023-07-20T18:13:35;32.88;51.99
62476;DHT22;50739;45.670;11.936;2023-07-20T18:18:39;32.70;54.05
62476;DHT22;50739;45.670;11.936;2023-07-20T18:23:41;32.56;55.49
62476;DHT22;50739;45.670;11.936;2023-07-20T18:28:44;32.29;57.39
62476;DHT22;50739;45.670;11.936;2023-07-20T18:33:47;32.11;56.66
62476;DHT22;50739;45.670;11.936;2023-07-20T18:38:50;31.93;57.14
62476;DHT22;50739;45.670;11.936;2023-07-20T18:43:52;31.93;58.03
62476;DHT22;50739;45.670;11.936;2023-07-20T18:48:55;31.80;58.17
62476;DHT22;50739;45.670;11.936;2023-07-20T18:53:58;31.59;59.22
62476;DHT22;50739;45.670;11.936;2023-07-20T18:59:01;31.39;60.42
62476;DHT22;50739;45.670;11.936;2023-07-20T19:04:04;31.36;61.05
62476;DHT22;50739;45.670;11.936;2023-07-20T19:09:07;31.23;61.68
62476;DHT22;50739;45.670;11.936;2023-07-20T19:14:09;31.08;62.39
62476;DHT22;50739;45.670;11.936;2023-07-20T19:19:13;31.01;63.20
62476;DHT22;50739;45.670;11.936;2023-07-20T19:24:15;30.84;63.75
62476;DHT22;50739;45.670;11.936;2023-07-20T19:29:18;30.84;62.78
62476;DHT22;50739;45.670;11.936;2023-07-20T19:34:21;30.71;62.92
62476;DHT22;50739;45.670;11.936;2023-07-20T19:39:25;30.64;62.43
62476;DHT22;50739;45.670;11.936;2023-07-20T19:44:27;30.60;63.54
62476;DHT22;50739;45.670;11.936;2023-07-20T19:49:31;30.48;64.10
62476;DHT22;50739;45.670;11.936;2023-07-20T19:54:33;30.39;64.89
62476;DHT22;50739;45.670;11.936;2023-07-20T19:59:35;30.23;65.23
62476;DHT22;50739;45.670;11.936;2023-07-20T20:04:39;30.25;64.12
62476;DHT22;50739;45.670;11.936;2023-07-20T20:09:42;30.26;64.22
62476;DHT22;50739;45.670;11.936;2023-07-20T20:14:44;30.05;65.49
62476;DHT22;50739;45.670;11.936;2023-07-20T20:19:48;29.92;65.49
62476;DHT22;50739;45.670;11.936;2023-07-20T20:24:51;30.06;65.93
62476;DHT22;50739;45.670;11.936;2023-07-20T20:29:54;29.86;65.79
62476;DHT22;50739;45.670;11.936;2023-07-20T20:34:58;29.77;64.12
62476;DHT22;50739;45.670;11.936;2023-07-20T20:40:00;29.57;64.47
62476;DHT22;50739;45.670;11.936;2023-07-20T20:45:03;29.61;64.36
62476;DHT22;50739;45.670;11.936;2023-07-20T20:50:08;29.38;65.31
62476;DHT22;50739;45.670;11.936;2023-07-20T20:55:11;29.33;66.07
62476;DHT22;50739;45.670;11.936;2023-07-20T21:00:14;29.16;66.94
62476;DHT22;50739;45.670;11.936;2023-07-20T21:05:18;29.12;67.99
62476;DHT22;50739;45.670;11.936;2023-07-20T21:10:20;29.06;68.83
62476;DHT22;50739;45.670;11.936;2023-07-20T21:15:22;28.91;69.48
62476;DHT22;50739;45.670;11.936;2023-07-20T21:20:28;28.75;70.43
62476;DHT22;50739;45.670;11.936;2023-07-20T21:25:31;28.69;70.78
62476;DHT22;50739;45.670;11.936;2023-07-20T21:30:34;28.68;71.48
62476;DHT22;50739;45.670;11.936;2023-07-20T21:35:38;28.51;71.78
62476;DHT22;50739;45.670;11.936;2023-07-20T21:40:40;28.50;72.40
62476;DHT22;50739;45.670;11.936;2023-07-20T21:45:43;28.43;72.77
62476;DHT22;50739;45.670;11.936;2023-07-20T21:50:48;28.31;73.13
62476;DHT22;50739;45.670;11.936;2023-07-20T21:55:50;28.33;73.37
62476;DHT22;50739;45.670;11.936;2023-07-20T22:00:53;28.23;73.84
62476;DHT22;50739;45.670;11.936;2023-07-20T22:06:01;28.18;73.70
62476;DHT22;50739;45.670;11.936;2023-07-20T22:11:05;28.04;74.80
62476;DHT22;50739;45.670;11.936;2023-07-20T22:16:09;28.07;74.40
62476;DHT22;50739;45.670;11.936;2023-07-20T22:21:13;27.93;75.37
62476;DHT22;50739;45.670;11.936;2023-07-20T22:26:15;27.84;75.34
62476;DHT22;50739;45.670;11.936;2023-07-20T22:31:18;27.76;75.69
62476;DHT22;50739;45.670;11.936;2023-07-20T22:36:22;27.79;75.79
62476;DHT22;50739;45.670;11.936;2023-07-20T22:41:24;27.62;76.30
62476;DHT22;50739;45.670;11.936;2023-07-20T22:46:27;27.58;76.60
62476;DHT22;50739;45.670;11.936;2023-07-20T22:51:30;27.63;76.58
62476;DHT22;50739;45.670;11.936;2023-07-20T22:56:33;27.52;77.14
62476;DHT22;50739;45.670;11.936;2023-07-20T23:01:35;27.61;76.76
62476;DHT22;50739;45.670;11.936;2023-07-20T23:06:40;27.45;77.39
62476;DHT22;50739;45.670;11.936;2023-07-20T23:11:42;27.33;77.54
62476;DHT22;50739;45.670;11.936;2023-07-20T23:16:44;27.28;77.84
62476;DHT22;50739;45.670;11.936;2023-07-20T23:21:48;27.20;78.05
62476;DHT22;50739;45.670;11.936;2023-07-20T23:26:51;27.20;78.19
62476;DHT22;50739;45.670;11.936;2023-07-20T23:31:54;27.23;77.79
62476;DHT22;50739;45.670;11.936;2023-07-20T23:36:57;27.21;77.80
62476;DHT22;50739;45.670;11.936;2023-07-20T23:42:00;27.14;78.22
62476;DHT22;50739;45.670;11.936;2023-07-20T23:47:05;27.27;77.51
62476;DHT22;50739;45.670;11.936;2023-07-20T23:52:09;27.15;77.81
62476;DHT22;50739;45.670;11.936;2023-07-20T23:57:11;27.20;77.73
